Smithville, OK

11:15 AM CST on March 01, 2015 (GMT -0600)
Helms Sevier County | Change Station
CLOSE
Current Station
Airport
Location: De Queen,
Elevation: 354 ft
Nearby Weather Stations

Elev 354 ft 34.05 °N, 94.40 °W | Updated 22 minutes ago

Overcast
Overcast
41 °F
Feels Like 39 °F
N
4
Wind Variable Wind from ESE

Today
High -- | Low -- °F
--% Chance of Precip.
Yesterday
High -- | Low -- °F
Precip. -- in
6:47 AM 6:14 PM
Waxing Gibbous, 86% visible
Pressure 30.35 in
Visibility 3.0 miles
Clouds Overcast 600 ft
Windchill 39 °F
Dew Point 39 °F
Humidity 93%
Rainfall 0.00 in
Snow Depth Not available.
UV 2 out of 12
Pollen 2.00 out of 12
Air Quality Not available.
Flu Activity Not available.
METAR KDEQ 011653Z AUTO 11003KT 3SM BR OVC006 05/04 A3035 RMK AO2 RAE1555B17E30 SLP277 P0000 T00500039

More Conditions Fewer Conditions

Pressure 30.35 in
Visibility 3.0 miles
Clouds Overcast 600 ft
Windchill 39 °F
Dew Point 39 °F
Humidity 93%
Rainfall 0.00 in
Snow Depth Not available.
UV 2 out of 12
Pollen 2.00 out of 12
Air Quality Not available.
Flu Activity Not available.
METAR KDEQ 011653Z AUTO 11003KT 3SM BR OVC006 05/04 A3035 RMK AO2 RAE1555B17E30 SLP277 P0000 T00500039

More Conditions Fewer Conditions

Nowcast | as of 10:47 am CST on March 1, 2015

Scattered areas of light rain and drizzle will continue to move northeast across the region throughout the day. Reduced visibilities of one to two miles can be expected with this precipitation at times.

×

10-Day Weather Forecast

Almanac

Astronomy

Mar. 01, 2015 Rise Set
Actual Time
Civil Twilight
Nautical Twilight
Astronomical Twilight
Moon
Length of Visible Light
Length of Day
Tomorrow will be .
, % of the Moon is Illuminated

Today's Extremes

State Highs State Lows

Community

WunderPhotos

Upload Photos

1,801,470 photos uploaded!

WunderBlogs® & News

Nearby

Air Quality

  Air Quality AQ Index Pollutant
Not available.

Snow Depth

Station Depth Elevation

Earthquake Activity

City Distance Mag. Time & Date
Minimum magnitude displayed is 2.5.

Coastal Water Temperatures

Place Temperature

Nearby Weather Stations